Wed, 16 Jun 2021 16:28:11 UTC

Information for RPM brotli-1.0.7-11.fc33.aarch64.rpm

ID21577264
Namebrotli
Version1.0.7
Release11.fc33
Epoch
Archaarch64
SummaryLossless compression algorithm
DescriptionBrotli is a generic-purpose lossless compression algorithm that compresses data using a combination of a modern variant of the LZ77 algorithm, Huffman coding and 2nd order context modeling, with a compression ratio comparable to the best currently available general-purpose compression methods. It is similar in speed with deflate but offers more dense compression.
Build Time2020-05-23 16:40:01 GMT
Size327,229
ca766ae5f57dadf3d80d254daa9992bf
LicenseMIT
Buildrootf33-python-20856208-1539639
Provides
brotli = 1.0.7-11.fc33
brotli(aarch-64) = 1.0.7-11.fc33
Obsoletes No Obsoletes
Conflicts No Conflicts
Requires
ld-linux-aarch64.so.1()(64bit)
ld-linux-aarch64.so.1(GLIBC_2.17)(64bit)
libbrotli(aarch-64) = 1.0.7-11.fc33
libc.so.6()(64bit)
libc.so.6(GLIBC_2.17)(64bit)
libm.so.6()(64bit)
libm.so.6(GLIBC_2.29)(64bit)
rpmlib(CompressedFileNames) <= 3.0.4-1
rpmlib(FileDigests) <= 4.6.0-1
rpmlib(PayloadFilesHavePrefix) <= 4.0-1
rpmlib(PayloadIsZstd) <= 5.4.18-1
rtld(GNU_HASH)
Recommends No Recommends
Suggests No Suggests
Supplements No Supplements
Enhances No Enhances
Files
1 through 4 of 4
Name ascending sort Size
/usr/bin/brotli727,952
/usr/lib/.build-id0
/usr/lib/.build-id/dc0
/usr/lib/.build-id/dc/2b867145ce4a6a1e320276310937b22ec3b4ee26
Component of
Page:
1 through 50 of 9881 >>>
Buildroot descending sort Created State
f33-build-22187131-1884738 2020-08-14 03:06:29 expired
f33-build-22187111-1884738 2020-08-14 03:05:34 expired
f33-build-22187077-1884738 2020-08-14 03:03:52 expired
f33-build-22186277-1884684 2020-08-14 01:32:19 expired
f33-build-22185979-1884442 2020-08-14 00:55:17 expired
f33-build-22185238-1884442 2020-08-13 23:37:30 expired
f33-build-22184788-1884442 2020-08-13 22:56:12 expired
f33-build-22184418-1884267 2020-08-13 22:10:52 expired
f33-build-22183603-1883803 2020-08-13 20:23:53 expired
f33-build-22183523-1883803 2020-08-13 20:10:27 expired
f33-build-22183442-1883803 2020-08-13 19:59:31 expired
f33-build-22183123-1883803 2020-08-13 18:18:03 expired
f33-build-22182914-1883803 2020-08-13 17:17:53 expired
f33-build-22182824-1883803 2020-08-13 16:58:33 expired
f33-build-22182638-1883691 2020-08-13 16:10:30 expired
f33-build-22182482-1883590 2020-08-13 15:50:34 expired
f33-build-22182329-1883560 2020-08-13 15:25:37 expired
f33-build-22182037-1883278 2020-08-13 14:48:05 expired
f33-build-22181124-1882884 2020-08-13 13:01:02 expired
f33-build-22181112-1882884 2020-08-13 12:58:44 expired
f33-build-22180018-1882497 2020-08-13 11:06:58 expired
f33-build-22179119-1882497 2020-08-13 09:37:20 expired
f33-build-22179096-1882497 2020-08-13 09:34:59 expired
f33-build-22179081-1882497 2020-08-13 09:32:35 expired
f33-build-22178962-1882497 2020-08-13 09:16:02 expired
f33-build-22178561-1882497 2020-08-13 08:38:26 expired
f33-build-22178556-1882497 2020-08-13 08:38:23 expired
f33-build-22178555-1882497 2020-08-13 08:38:23 expired
f33-build-22178551-1882497 2020-08-13 08:38:05 expired
f33-build-22178539-1882497 2020-08-13 08:37:52 expired
f33-build-22178529-1882497 2020-08-13 08:37:29 expired
f33-build-22178381-1882497 2020-08-13 08:25:52 expired
f33-build-22178242-1882497 2020-08-13 08:11:24 expired
f33-build-22178130-1882497 2020-08-13 07:58:56 expired
f33-build-22178126-1882497 2020-08-13 07:58:55 expired
f33-build-22178125-1882497 2020-08-13 07:58:55 expired
f33-build-22178124-1882497 2020-08-13 07:58:49 expired
f33-build-22178114-1882497 2020-08-13 07:58:33 expired
f33-build-22178112-1882497 2020-08-13 07:58:18 expired
f33-build-22178111-1882497 2020-08-13 07:58:18 expired
f33-build-22178107-1882497 2020-08-13 07:58:17 expired
f33-build-22178101-1882497 2020-08-13 07:58:10 expired
f33-build-22178100-1882497 2020-08-13 07:58:08 expired
f33-build-22178097-1882497 2020-08-13 07:57:58 expired
f33-build-22178089-1882497 2020-08-13 07:57:40 expired
f33-build-22178071-1882497 2020-08-13 07:53:03 expired
f33-build-22178062-1882497 2020-08-13 07:52:43 expired
f33-build-22178055-1882497 2020-08-13 07:52:13 expired
f33-build-22178052-1882497 2020-08-13 07:52:08 expired
f33-build-22178042-1882497 2020-08-13 07:52:05 expired